createdAt,value
2019-01-27T00:00:47.240Z,984.83
2019-01-27T00:02:55.636Z,984.87
2019-01-27T00:03:35.881Z,984.79
2019-01-27T00:04:16.799Z,984.75
2019-01-27T00:04:57.222Z,984.81
2019-01-27T00:05:39.299Z,984.7
2019-01-27T00:06:19.294Z,984.73
2019-01-27T00:07:00.078Z,984.66
2019-01-27T00:07:40.467Z,984.6
2019-01-27T00:08:20.932Z,984.73
2019-01-27T00:09:01.346Z,984.74
2019-01-27T00:09:41.833Z,984.69
2019-01-27T00:10:22.651Z,984.67
2019-01-27T00:11:02.879Z,984.69
2019-01-27T00:11:43.303Z,984.71
2019-01-27T00:12:23.779Z,984.73
2019-01-27T00:13:04.550Z,984.65
2019-01-27T00:13:45.538Z,984.72
2019-01-27T00:14:25.996Z,984.65
2019-01-27T00:15:07.011Z,984.66
2019-01-27T00:15:47.582Z,984.63
2019-01-27T00:16:28.685Z,984.61
2019-01-27T00:17:09.251Z,984.59
2019-01-27T00:17:49.636Z,984.52
2019-01-27T00:18:31.402Z,984.5
2019-01-27T00:19:11.595Z,984.48
2019-01-27T00:19:52.144Z,984.48
2019-01-27T00:20:32.566Z,984.49
2019-01-27T00:21:13.973Z,984.47
2019-01-27T00:21:54.367Z,984.44
2019-01-27T00:22:36.316Z,984.4
2019-01-27T00:23:17.103Z,984.41
2019-01-27T00:23:57.377Z,984.34
2019-01-27T00:24:37.880Z,984.36
2019-01-27T00:25:18.662Z,984.33
2019-01-27T00:25:59.250Z,984.27
2019-01-27T00:26:39.790Z,984.32
2019-01-27T00:27:20.233Z,984.29
2019-01-27T00:28:00.863Z,984.2
2019-01-27T00:28:43.452Z,984.29
2019-01-27T00:29:27.078Z,984.28
2019-01-27T00:30:11.183Z,984.24
2019-01-27T00:30:52.415Z,984.18
2019-01-27T00:31:35.450Z,984.12
2019-01-27T00:34:03.055Z,984.08
2019-01-27T00:34:56.514Z,984.07
2019-01-27T00:35:48.818Z,984.06
2019-01-27T00:36:41.322Z,984.06
2019-01-27T00:37:34.661Z,984.05
2019-01-27T00:38:27.678Z,984.03
2019-01-27T00:39:20.176Z,983.96
2019-01-27T00:40:13.713Z,984
2019-01-27T00:41:05.310Z,983.98
2019-01-27T00:41:59.654Z,983.9
2019-01-27T00:42:55.107Z,983.89
2019-01-27T00:43:47.821Z,983.85
2019-01-27T00:44:40.316Z,983.91
2019-01-27T00:45:32.738Z,983.89
2019-01-27T00:46:25.234Z,983.85
2019-01-27T00:47:19.161Z,983.86
2019-01-27T00:48:11.330Z,983.76
2019-01-27T00:49:02.873Z,983.76
2019-01-27T00:51:04.819Z,983.76
2019-01-27T00:51:57.407Z,983.76
2019-01-27T00:52:49.906Z,983.73
2019-01-27T00:53:42.468Z,983.67
2019-01-27T00:54:37.031Z,983.7
2019-01-27T00:55:29.780Z,983.62
2019-01-27T00:56:22.302Z,983.63
2019-01-27T00:57:16.257Z,983.58
2019-01-27T00:58:08.839Z,983.58
2019-01-27T00:59:01.401Z,983.55
2019-01-27T00:59:53.856Z,983.53
2019-01-27T01:00:46.784Z,983.53
2019-01-27T01:01:39.471Z,983.46
2019-01-27T01:02:32.861Z,983.42
2019-01-27T01:03:25.965Z,983.43
2019-01-27T01:04:18.811Z,983.42
2019-01-27T01:05:11.590Z,983.39
2019-01-27T01:06:05.167Z,983.41
2019-01-27T01:06:57.733Z,983.35
2019-01-27T01:07:50.266Z,983.32
2019-01-27T01:08:47.672Z,983.32
2019-01-27T01:09:39.715Z,983.26
2019-01-27T01:10:32.006Z,983.29
2019-01-27T01:11:24.327Z,983.25
2019-01-27T01:12:16.513Z,983.25
2019-01-27T01:13:10.872Z,983.24
2019-01-27T01:14:03.758Z,983.21
2019-01-27T01:14:56.285Z,983.24
2019-01-27T01:15:49.583Z,983.18
2019-01-27T01:16:41.714Z,983.19
2019-01-27T01:17:34.436Z,983.2
2019-01-27T01:18:28.516Z,983.22
2019-01-27T01:19:24.529Z,983.21
2019-01-27T01:20:17.282Z,983.21
2019-01-27T01:21:21.593Z,983.13
2019-01-27T01:22:14.976Z,983.14
2019-01-27T01:23:19.863Z,983.12
2019-01-27T01:24:20.024Z,983.11
2019-01-27T01:25:14.832Z,983.09
2019-01-27T01:26:09.122Z,983.1
2019-01-27T01:27:01.380Z,983.13
2019-01-27T01:27:55.032Z,983.03
2019-01-27T01:29:05.293Z,982.96
2019-01-27T01:29:57.786Z,982.99
2019-01-27T01:30:50.179Z,982.97
2019-01-27T01:31:43.147Z,982.94
2019-01-27T01:32:36.580Z,982.91
2019-01-27T01:33:47.244Z,982.92
2019-01-27T01:34:41.524Z,982.91
2019-01-27T01:35:33.925Z,982.86
2019-01-27T01:36:33.388Z,982.89
2019-01-27T01:37:25.929Z,982.88
2019-01-27T01:39:59.575Z,982.8
2019-01-27T01:42:16.776Z,982.73
2019-01-27T01:44:12.248Z,982.8
2019-01-27T01:45:05.530Z,982.8
2019-01-27T01:45:58.599Z,982.81
2019-01-27T01:46:52.183Z,982.74
2019-01-27T01:47:48.377Z,982.72
2019-01-27T01:48:56.295Z,982.68
2019-01-27T01:51:24.720Z,982.64
2019-01-27T01:52:02.010Z,982.64
2019-01-27T01:52:42.560Z,982.61
2019-01-27T01:53:23.011Z,982.58
2019-01-27T01:54:03.349Z,982.56
2019-01-27T01:54:44.656Z,982.52
2019-01-27T01:55:25.102Z,982.54
2019-01-27T01:56:05.604Z,982.48
2019-01-27T01:56:45.931Z,982.47
2019-01-27T01:57:26.584Z,982.45
2019-01-27T02:01:48.586Z,982.4
2019-01-27T02:02:41.164Z,982.43
2019-01-27T02:03:33.538Z,982.4
2019-01-27T02:04:25.712Z,982.35
2019-01-27T02:05:18.094Z,982.35
2019-01-27T02:06:11.523Z,982.32
2019-01-27T02:07:04.337Z,982.34
2019-01-27T02:08:00.239Z,982.26
2019-01-27T02:08:58.500Z,982.29
2019-01-27T02:09:50.986Z,982.26
2019-01-27T02:10:49.337Z,982.25
2019-01-27T02:11:42.319Z,982.27
2019-01-27T02:12:37.727Z,982.12
2019-01-27T02:13:30.656Z,982.1
2019-01-27T02:14:23.539Z,982.15
2019-01-27T02:15:18.557Z,982.12
2019-01-27T02:16:10.899Z,982.08
2019-01-27T02:18:20.789Z,982.04
2019-01-27T02:19:13.236Z,981.96
2019-01-27T02:20:07.111Z,981.95
2019-01-27T02:21:00.696Z,981.94
2019-01-27T02:21:53.754Z,981.9
2019-01-27T02:22:46.327Z,981.97
2019-01-27T02:23:40.208Z,981.85
2019-01-27T02:24:32.703Z,981.88
2019-01-27T02:25:25.295Z,981.8
2019-01-27T02:26:19.969Z,981.8
2019-01-27T02:27:13.816Z,981.76
2019-01-27T02:28:06.063Z,981.73
2019-01-27T02:28:58.244Z,981.75
2019-01-27T02:29:50.761Z,981.74
2019-01-27T02:30:42.872Z,981.68
2019-01-27T02:31:37.907Z,981.73
2019-01-27T02:32:32.036Z,981.74
2019-01-27T02:33:24.139Z,981.62
2019-01-27T02:34:17.153Z,981.65
2019-01-27T02:35:11.308Z,981.59
2019-01-27T02:36:04.874Z,981.57
2019-01-27T02:36:56.954Z,981.54
2019-01-27T02:37:52.267Z,981.54
2019-01-27T02:38:45.843Z,981.53
2019-01-27T02:39:39.497Z,981.56
2019-01-27T02:40:33.112Z,981.48
2019-01-27T02:41:25.957Z,981.47
2019-01-27T02:42:18.778Z,981.46
2019-01-27T02:43:11.683Z,981.43
2019-01-27T02:44:04.713Z,981.38
2019-01-27T02:44:58.417Z,981.49
2019-01-27T02:45:51.303Z,981.37
2019-01-27T02:46:43.773Z,981.35
2019-01-27T02:47:42.101Z,981.45
2019-01-27T02:48:34.212Z,981.38
2019-01-27T02:49:26.333Z,981.36
2019-01-27T02:50:18.445Z,981.32
2019-01-27T02:51:11.745Z,981.32
2019-01-27T02:52:04.843Z,981.28
2019-01-27T02:52:57.549Z,981.3
2019-01-27T02:53:51.452Z,981.27
2019-01-27T02:54:43.610Z,981.3
2019-01-27T02:55:41.613Z,981.29
2019-01-27T02:56:33.589Z,981.24
2019-01-27T02:57:25.315Z,981.23
2019-01-27T02:58:11.223Z,981.22
2019-01-27T02:58:55.420Z,981.26
2019-01-27T02:59:36.351Z,981.2
2019-01-27T03:00:16.928Z,981.25
2019-01-27T03:00:57.706Z,981.23
2019-01-27T03:01:38.675Z,981.18
2019-01-27T03:02:19.391Z,981.22
2019-01-27T03:02:59.712Z,981.18
2019-01-27T03:03:41.910Z,981.12
2019-01-27T03:04:22.817Z,981.19
2019-01-27T03:05:03.502Z,981.09
2019-01-27T03:05:44.120Z,981.1
2019-01-27T03:06:26.870Z,981.09
2019-01-27T03:07:09.894Z,981.07
2019-01-27T03:07:52.078Z,981.05
2019-01-27T03:08:32.839Z,981.08
2019-01-27T03:09:16.411Z,981.1
2019-01-27T03:09:57.092Z,981.06
2019-01-27T03:10:37.881Z,981.13
2019-01-27T03:11:20.423Z,981.04
2019-01-27T03:12:02.166Z,981.01
2019-01-27T03:12:43.041Z,981.01
2019-01-27T03:13:25.534Z,980.98
2019-01-27T03:14:06.804Z,980.95
2019-01-27T03:14:47.541Z,980.97
2019-01-27T03:15:30.791Z,980.91
2019-01-27T03:16:11.737Z,980.93
2019-01-27T03:16:53.202Z,980.92
2019-01-27T03:17:35.385Z,980.84
2019-01-27T03:18:16.709Z,980.87
2019-01-27T03:18:57.676Z,980.87
2019-01-27T03:19:40.117Z,980.88
2019-01-27T03:20:24.236Z,980.82
2019-01-27T03:21:05.330Z,980.78
2019-01-27T03:21:45.963Z,980.81
2019-01-27T03:22:26.797Z,980.71
2019-01-27T03:23:07.476Z,980.71
2019-01-27T03:23:49.508Z,980.73
2019-01-27T03:24:31.400Z,980.66
2019-01-27T03:25:14.212Z,980.69
2019-01-27T03:25:55.538Z,980.64
2019-01-27T03:26:35.668Z,980.66
2019-01-27T03:27:16.821Z,980.6
2019-01-27T03:27:58.814Z,980.55
2019-01-27T03:28:39.565Z,980.56
2019-01-27T03:29:20.076Z,980.62
2019-01-27T03:30:02.919Z,980.58
2019-01-27T03:30:45.342Z,980.51
2019-01-27T03:31:26.227Z,980.51
2019-01-27T03:32:07.044Z,980.54
2019-01-27T03:32:49.349Z,980.51
2019-01-27T03:33:32.547Z,980.47
2019-01-27T03:34:12.989Z,980.51
2019-01-27T03:34:54.769Z,980.46
2019-01-27T03:35:37.362Z,980.44
2019-01-27T03:36:18.731Z,980.44
2019-01-27T03:36:59.374Z,980.41
2019-01-27T03:37:40.211Z,980.38
2019-01-27T03:38:21.544Z,980.38
2019-01-27T03:39:02.841Z,980.4
2019-01-27T03:39:43.947Z,980.34
2019-01-27T03:40:27.088Z,980.34
2019-01-27T03:41:08.513Z,980.28
2019-01-27T03:41:49.206Z,980.28
2019-01-27T03:42:31.304Z,980.24
2019-01-27T03:43:12.341Z,980.24
2019-01-27T03:43:52.905Z,980.2
2019-01-27T03:44:33.969Z,980.25
2019-01-27T03:45:14.840Z,980.24
2019-01-27T03:45:55.459Z,980.32
2019-01-27T03:46:37.770Z,980.31
2019-01-27T03:47:18.373Z,980.27
2019-01-27T03:47:59.072Z,980.15
2019-01-27T03:48:40.045Z,980.2
2019-01-27T03:49:20.741Z,980.17
2019-01-27T03:50:02.592Z,980.14
2019-01-27T03:50:44.455Z,980.11
2019-01-27T03:51:26.104Z,980.08
2019-01-27T03:52:08.072Z,980.08
2019-01-27T03:52:48.953Z,980.02
2019-01-27T03:53:29.221Z,980.08
2019-01-27T03:54:11.144Z,979.99
2019-01-27T03:54:52.734Z,979.96
2019-01-27T03:55:33.931Z,979.91
2019-01-27T03:56:14.770Z,979.92
2019-01-27T03:56:55.798Z,979.91
2019-01-27T03:57:36.445Z,979.92
2019-01-27T03:58:16.744Z,979.88
2019-01-27T03:58:57.305Z,979.83
2019-01-27T03:59:37.982Z,979.85
2019-01-27T04:00:18.761Z,979.81
2019-01-27T04:01:01.917Z,979.83
2019-01-27T04:01:42.347Z,979.74
2019-01-27T04:02:23.412Z,979.78
2019-01-27T04:03:04.774Z,979.74
2019-01-27T04:03:45.737Z,979.77
2019-01-27T04:04:26.251Z,979.78
2019-01-27T04:05:07.749Z,979.7
2019-01-27T04:05:48.916Z,979.68
2019-01-27T04:06:29.275Z,979.65
2019-01-27T04:07:09.691Z,979.71
2019-01-27T04:07:52.064Z,979.71
2019-01-27T04:08:32.612Z,979.72
2019-01-27T04:09:13.310Z,979.67
2019-01-27T04:09:53.794Z,979.69
2019-01-27T04:10:34.976Z,979.66
2019-01-27T04:11:17.755Z,979.65
2019-01-27T04:11:59.222Z,979.71
2019-01-27T04:12:40.084Z,979.62
2019-01-27T04:13:21.222Z,979.57
2019-01-27T04:14:03.493Z,979.59
2019-01-27T04:14:43.737Z,979.57
2019-01-27T04:15:25.652Z,979.55
2019-01-27T04:16:06.672Z,979.61
2019-01-27T04:16:47.406Z,979.61
2019-01-27T04:17:29.416Z,979.6
2019-01-27T04:18:10.667Z,979.61
2019-01-27T04:18:52.065Z,979.57
2019-01-27T04:19:33.206Z,979.6
2019-01-27T04:20:14.887Z,979.54
2019-01-27T04:20:57.216Z,979.54
2019-01-27T04:21:38.016Z,979.54
2019-01-27T04:22:18.650Z,979.51
2019-01-27T04:24:46.215Z,979.46
2019-01-27T04:25:30.884Z,979.45
2019-01-27T04:26:13.870Z,979.43
2019-01-27T04:26:54.474Z,979.46
2019-01-27T05:12:41.504Z,978.76
2019-01-27T05:13:40.644Z,978.76
2019-01-27T05:17:37.813Z,978.67
2019-01-27T05:18:28.523Z,978.67
2019-01-27T05:19:19.848Z,978.67
2019-01-27T05:20:12.677Z,978.58
2019-01-27T05:22:17.781Z,978.57
2019-01-27T05:23:09.573Z,978.61
2019-01-27T05:25:35.847Z,978.58
2019-01-27T05:26:28.345Z,978.58
2019-01-27T05:27:21.351Z,978.54
2019-01-27T05:28:13.895Z,978.57
2019-01-27T05:29:05.970Z,978.6
2019-01-27T05:29:58.457Z,978.58
2019-01-27T05:30:51.731Z,978.53
2019-01-27T05:31:44.749Z,978.49
2019-01-27T05:32:37.506Z,978.54
2019-01-27T05:33:31.792Z,978.53
2019-01-27T05:34:25.533Z,978.51
2019-01-27T05:35:17.733Z,978.52
2019-01-27T05:36:10.913Z,978.49
2019-01-27T05:37:03.195Z,978.46
2019-01-27T05:37:55.724Z,978.47
2019-01-27T05:38:48.303Z,978.44
2019-01-27T05:39:40.767Z,978.46
2019-01-27T05:40:33.588Z,978.43
2019-01-27T05:41:26.174Z,978.44
2019-01-27T05:42:18.218Z,978.39
2019-01-27T05:43:10.700Z,978.39
2019-01-27T05:44:03.264Z,978.38
2019-01-27T05:44:56.212Z,978.4
2019-01-27T05:45:48.117Z,978.36
2019-01-27T05:46:40.353Z,978.41
2019-01-27T05:47:32.774Z,978.35
2019-01-27T05:48:27.244Z,978.36
2019-01-27T05:49:19.251Z,978.38
2019-01-27T05:50:13.335Z,978.31
2019-01-27T05:51:07.154Z,978.31
2019-01-27T05:52:00.256Z,978.25
2019-01-27T05:52:53.282Z,978.2
2019-01-27T05:53:45.907Z,978.24
2019-01-27T05:54:37.902Z,978.2
2019-01-27T05:55:30.304Z,978.22
2019-01-27T05:56:22.674Z,978.11
2019-01-27T05:57:14.717Z,978.12
2019-01-27T05:58:07.318Z,978.12
2019-01-27T05:59:01.218Z,978.09
2019-01-27T05:59:55.288Z,978.09
2019-01-27T06:00:47.897Z,978.07
2019-01-27T06:01:40.820Z,978.06
2019-01-27T06:02:33.172Z,978.06
2019-01-27T06:03:26.509Z,978.07
2019-01-27T06:04:18.831Z,978.08
2019-01-27T06:05:11.240Z,978.08
2019-01-27T06:06:03.746Z,978.08
2019-01-27T06:06:56.415Z,978.08
2019-01-27T06:07:48.900Z,978.08
2019-01-27T06:08:41.309Z,978.08
2019-01-27T06:09:33.744Z,978.04
2019-01-27T06:10:26.822Z,978.04
2019-01-27T06:11:19.196Z,978.04
2019-01-27T06:12:11.302Z,978.05
2019-01-27T06:13:03.673Z,977.99
2019-01-27T06:13:56.160Z,977.98
2019-01-27T06:14:48.886Z,977.97
2019-01-27T06:15:41.293Z,977.99
2019-01-27T06:16:33.826Z,978
2019-01-27T06:17:26.952Z,978
2019-01-27T06:18:19.103Z,977.96
2019-01-27T06:19:12.496Z,978.04
2019-01-27T06:20:05.034Z,977.96
2019-01-27T06:20:57.330Z,978.04
2019-01-27T06:21:49.649Z,977.98
2019-01-27T06:22:42.038Z,977.94
2019-01-27T06:23:34.470Z,977.95
2019-01-27T06:24:21.842Z,977.97
2019-01-27T06:25:02.416Z,977.69
2019-01-27T06:25:42.888Z,977.85
2019-01-27T06:26:23.706Z,977.87
2019-01-27T06:27:05.995Z,977.85
2019-01-27T06:27:47.846Z,977.86
2019-01-27T06:28:28.467Z,977.89
2019-01-27T06:29:09.521Z,977.87
2019-01-27T06:29:51.127Z,977.82
2019-01-27T06:30:32.835Z,977.77
2019-01-27T06:31:13.791Z,977.76
2019-01-27T06:31:55.295Z,977.8
2019-01-27T06:32:36.268Z,977.77
2019-01-27T06:33:16.957Z,977.78
2019-01-27T06:33:57.580Z,977.73
2019-01-27T06:34:38.222Z,977.79
2019-01-27T06:35:19.518Z,977.8
2019-01-27T06:36:01.174Z,977.77
2019-01-27T06:36:42.471Z,977.74
2019-01-27T06:37:24.797Z,977.71
2019-01-27T06:38:04.875Z,977.74
2019-01-27T06:38:45.529Z,977.77
2019-01-27T06:39:26.155Z,977.75
2019-01-27T06:40:06.595Z,977.74
2019-01-27T06:40:47.472Z,977.77
2019-01-27T06:41:28.420Z,977.8
2019-01-27T06:42:09.402Z,977.8
2019-01-27T06:42:55.439Z,977.83
2019-01-27T06:43:35.740Z,977.88
2019-01-27T06:44:16.260Z,977.85
2019-01-27T06:44:56.684Z,977.84
2019-01-27T06:45:37.135Z,977.84
2019-01-27T06:46:28.545Z,977.83
2019-01-27T06:47:09.051Z,977.84
2019-01-27T06:47:49.468Z,977.84
2019-01-27T06:48:29.864Z,977.83
2019-01-27T06:49:10.439Z,977.82
2019-01-27T06:49:51.285Z,977.81
2019-01-27T06:50:32.131Z,977.83
2019-01-27T06:51:13.759Z,977.83
2019-01-27T06:51:54.650Z,977.78
2019-01-27T06:52:38.248Z,977.81
2019-01-27T06:53:19.467Z,977.83
2019-01-27T06:55:46.909Z,977.84
2019-01-27T06:56:40.291Z,977.82
2019-01-27T06:57:32.903Z,977.81
2019-01-27T06:58:25.574Z,977.82
2019-01-27T06:59:18.699Z,977.76
2019-01-27T07:00:11.915Z,977.81
2019-01-27T07:01:04.650Z,977.82
2019-01-27T07:01:58.677Z,977.82
2019-01-27T07:02:51.374Z,977.78
2019-01-27T07:03:45.277Z,977.78
2019-01-27T07:04:43.090Z,977.73
2019-01-27T07:05:36.113Z,977.75
2019-01-27T07:06:30.707Z,977.75
2019-01-27T07:07:24.083Z,977.74
2019-01-27T07:08:23.642Z,977.74
2019-01-27T07:09:18.173Z,977.72
2019-01-27T07:10:11.702Z,977.67
2019-01-27T07:11:08.208Z,977.65
2019-01-27T07:12:06.345Z,977.63
2019-01-27T07:13:00.537Z,977.6
2019-01-27T07:13:53.980Z,977.64
2019-01-27T07:14:48.204Z,977.6
2019-01-27T07:15:42.305Z,977.59
2019-01-27T07:16:34.808Z,977.6
2019-01-27T07:17:28.111Z,977.6
2019-01-27T07:18:20.897Z,977.56
2019-01-27T07:19:14.532Z,977.53
2019-01-27T07:20:08.948Z,977.56
2019-01-27T07:21:06.072Z,977.52
2019-01-27T07:21:59.894Z,977.52
2019-01-27T07:22:57.136Z,977.54
2019-01-27T07:23:50.198Z,977.53
2019-01-27T07:24:44.042Z,977.49
2019-01-27T07:25:37.593Z,977.56
2019-01-27T07:26:33.590Z,977.53
2019-01-27T07:27:27.368Z,977.55
2019-01-27T07:28:22.655Z,977.53
2019-01-27T07:29:16.322Z,977.51
2019-01-27T07:30:11.146Z,977.53
2019-01-27T07:31:03.222Z,977.52
2019-01-27T07:31:55.648Z,977.52
2019-01-27T07:32:49.329Z,977.51
2019-01-27T07:33:43.598Z,977.52
2019-01-27T07:34:36.776Z,977.5
2019-01-27T07:35:32.177Z,977.48
2019-01-27T07:36:27.481Z,977.51
2019-01-27T07:37:22.719Z,977.48
2019-01-27T07:38:15.866Z,977.53
2019-01-27T07:39:12.062Z,977.48
2019-01-27T07:40:08.649Z,977.5
2019-01-27T07:41:07.965Z,977.52
2019-01-27T07:42:01.328Z,977.5
2019-01-27T07:42:57.158Z,977.46
2019-01-27T07:43:53.929Z,977.45
2019-01-27T07:44:48.228Z,977.48
2019-01-27T07:45:45.007Z,977.48
2019-01-27T07:46:47.749Z,977.47
2019-01-27T07:47:40.774Z,977.44
2019-01-27T07:48:49.851Z,977.45
2019-01-27T07:49:51.362Z,977.52
2019-01-27T07:50:45.589Z,977.49
2019-01-27T07:51:42.054Z,977.46
2019-01-27T07:52:34.762Z,977.44
2019-01-27T07:53:30.696Z,977.49
2019-01-27T07:54:24.786Z,977.48
2019-01-27T07:55:17.748Z,977.4
2019-01-27T07:56:10.218Z,977.42
2019-01-27T07:57:04.860Z,977.43
2019-01-27T07:57:57.298Z,977.41
2019-01-27T07:58:53.019Z,977.4
2019-01-27T07:59:47.536Z,977.39
2019-01-27T08:00:40.172Z,977.34
2019-01-27T08:01:34.483Z,977.34
2019-01-27T08:02:27.429Z,977.3
2019-01-27T08:03:20.674Z,977.28
2019-01-27T08:04:13.558Z,977.23
2019-01-27T08:05:08.857Z,977.23
2019-01-27T08:06:02.242Z,977.19
2019-01-27T08:06:54.739Z,977.25
2019-01-27T08:07:47.797Z,977.26
2019-01-27T08:08:42.058Z,977.25
2019-01-27T08:09:34.629Z,977.18
2019-01-27T08:10:27.354Z,977.22
2019-01-27T08:11:19.980Z,977.18
2019-01-27T08:12:13.773Z,977.2
2019-01-27T08:13:06.907Z,977.17
2019-01-27T08:13:59.248Z,977.13
2019-01-27T08:14:52.287Z,977.15
2019-01-27T08:15:46.009Z,977.15
2019-01-27T08:16:39.421Z,977.13
2019-01-27T08:17:32.328Z,977.2
2019-01-27T08:18:39.257Z,977.22
2019-01-27T08:19:31.642Z,977.19
2019-01-27T08:20:25.090Z,977.27
2019-01-27T08:21:17.497Z,977.27
2019-01-27T08:22:10.179Z,977.27
2019-01-27T08:23:03.868Z,977.2
2019-01-27T08:23:58.088Z,977.16
2019-01-27T08:24:51.631Z,977.27
2019-01-27T08:27:02.374Z,977.26
2019-01-27T08:27:55.596Z,977.28
2019-01-27T08:28:51.511Z,977.29
2019-01-27T08:31:01.057Z,977.3
2019-01-27T08:31:55.699Z,977.26
2019-01-27T08:32:50.281Z,977.31
2019-01-27T08:33:44.331Z,977.28
2019-01-27T08:34:37.095Z,977.34
2019-01-27T08:35:31.011Z,977.31
2019-01-27T08:36:27.090Z,977.31
2019-01-27T08:37:20.594Z,977.27
2019-01-27T08:38:17.308Z,977.32
2019-01-27T08:39:11.123Z,977.26
2019-01-27T08:40:05.174Z,977.2
2019-01-27T08:40:59.001Z,977.28
2019-01-27T08:41:53.332Z,977.21
2019-01-27T08:43:36.241Z,977.22
2019-01-27T08:45:49.385Z,977.12
2019-01-27T08:46:46.253Z,977.18
2019-01-27T08:52:19.428Z,977.03
2019-01-27T08:53:05.824Z,977.04
2019-01-27T08:53:46.188Z,977.09
2019-01-27T08:54:34.413Z,977.1
2019-01-27T08:55:16.556Z,977.14
2019-01-27T08:57:34.190Z,977.04
2019-01-27T08:58:28.259Z,976.99
2019-01-27T08:59:22.900Z,976.98
2019-01-27T09:00:15.536Z,976.97
2019-01-27T09:01:08.862Z,976.99
2019-01-27T09:02:02.775Z,977
2019-01-27T09:02:57.189Z,976.98
2019-01-27T09:03:53.563Z,977.01
2019-01-27T09:04:47.356Z,976.95
2019-01-27T09:11:10.504Z,976.87
2019-01-27T09:12:02.866Z,976.9
2019-01-27T09:12:57.827Z,976.91
2019-01-27T09:14:05.809Z,976.9
2019-01-27T09:14:58.855Z,976.89
2019-01-27T09:15:53.787Z,976.87
2019-01-27T09:16:47.475Z,976.83
2019-01-27T09:17:39.875Z,976.86
2019-01-27T09:18:33.218Z,976.83
2019-01-27T09:19:27.866Z,976.86
2019-01-27T09:20:23.389Z,976.85
2019-01-27T09:21:17.154Z,976.83
2019-01-27T09:22:10.819Z,976.84
2019-01-27T09:23:09.289Z,976.8
2019-01-27T09:24:02.126Z,976.8
2019-01-27T09:24:54.826Z,976.8
2019-01-27T09:25:46.944Z,976.79
2019-01-27T09:26:41.638Z,976.82
2019-01-27T09:27:34.665Z,976.83
2019-01-27T09:28:26.898Z,976.82
2019-01-27T09:29:28.223Z,976.8
2019-01-27T09:30:20.388Z,976.82
2019-01-27T09:31:14.632Z,976.85
2019-01-27T09:32:07.607Z,976.77
2019-01-27T09:33:01.296Z,976.73
2019-01-27T09:33:53.538Z,976.72
2019-01-27T09:34:46.414Z,976.71
2019-01-27T09:35:38.935Z,976.81
2019-01-27T09:36:32.265Z,976.78
2019-01-27T09:37:28.980Z,976.72
2019-01-27T09:38:24.044Z,976.77
2019-01-27T09:39:17.762Z,976.69
2019-01-27T09:40:12.853Z,976.7
2019-01-27T09:41:08.029Z,976.73
2019-01-27T09:42:02.859Z,976.71
2019-01-27T09:44:51.311Z,976.72
2019-01-27T09:45:57.510Z,976.7
2019-01-27T09:46:41.732Z,976.68
2019-01-27T09:47:33.642Z,976.7
2019-01-27T09:48:28.072Z,976.62
2019-01-27T09:49:22.159Z,976.68
2019-01-27T09:50:14.271Z,976.64
2019-01-27T09:51:10.796Z,976.64
2019-01-27T09:52:03.047Z,976.62
2019-01-27T09:52:55.449Z,976.74
2019-01-27T09:53:49.688Z,976.67
2019-01-27T09:54:41.945Z,976.69
2019-01-27T09:55:35.268Z,976.63
2019-01-27T09:56:28.014Z,976.63
2019-01-27T09:57:21.306Z,976.68
2019-01-27T09:58:18.220Z,976.65
2019-01-27T09:59:48.349Z,976.53
2019-01-27T10:00:41.986Z,976.62
2019-01-27T10:01:40.995Z,976.56
2019-01-27T10:02:51.673Z,976.6
2019-01-27T10:04:09.871Z,976.57
2019-01-27T10:06:32.556Z,976.65
2019-01-27T10:07:37.049Z,976.61
2019-01-27T10:08:34.088Z,976.55
2019-01-27T10:09:28.835Z,976.63
2019-01-27T10:10:26.399Z,976.57
2019-01-27T10:11:26.420Z,976.53
2019-01-27T10:12:21.436Z,976.53
2019-01-27T10:18:51.161Z,976.56
2019-01-27T10:19:53.831Z,976.46
2019-01-27T10:20:48.517Z,976.47
2019-01-27T10:21:57.628Z,976.46
2019-01-27T10:22:58.508Z,976.52
2019-01-27T10:24:03.587Z,976.48
2019-01-27T10:25:04.808Z,976.42
2019-01-27T10:26:02.738Z,976.49
2019-01-27T10:26:59.747Z,976.53
2019-01-27T11:07:32.086Z,976.13
2019-01-27T11:08:25.246Z,976.15
2019-01-27T11:09:20.720Z,976.14
2019-01-27T11:11:29.111Z,976.12
2019-01-27T11:12:11.176Z,976.16
2019-01-27T11:12:52.628Z,976.15
2019-01-27T11:13:36.976Z,976.13
2019-01-27T11:14:22.455Z,976.07
2019-01-27T11:15:04.666Z,976.08
2019-01-27T11:15:47.012Z,976.03
2019-01-27T11:16:30.259Z,975.99
2019-01-27T11:17:14.684Z,976.05
2019-01-27T11:17:58.886Z,976.03
2019-01-27T11:18:40.367Z,976.1
2019-01-27T11:21:53.409Z,976.07
2019-01-27T11:22:51.932Z,975.97
2019-01-27T11:25:47.318Z,976.01
2019-01-27T11:26:45.911Z,976.04
2019-01-27T11:27:57.380Z,976.02
2019-01-27T11:38:48.985Z,975.99
2019-01-27T11:39:36.158Z,975.94
2019-01-27T11:40:18.184Z,975.92
2019-01-27T11:40:59.578Z,975.86
2019-01-27T11:41:40.938Z,975.84
2019-01-27T11:42:24.182Z,975.92
2019-01-27T11:43:06.554Z,975.81
2019-01-27T11:43:47.125Z,975.94
2019-01-27T11:44:31.176Z,975.91
2019-01-27T11:45:11.590Z,975.89
2019-01-27T11:45:52.029Z,975.93
2019-01-27T11:46:32.512Z,975.92
2019-01-27T11:47:14.815Z,975.97
2019-01-27T11:47:55.395Z,975.91
2019-01-27T11:48:35.784Z,975.87
2019-01-27T11:49:17.404Z,975.86
2019-01-27T11:49:58.415Z,975.85
2019-01-27T11:50:43.641Z,975.79
2019-01-27T11:53:34.577Z,975.79
2019-01-27T11:55:29.297Z,975.76
2019-01-27T11:56:10.145Z,975.81
2019-01-27T11:56:50.551Z,975.82
2019-01-27T11:57:31.068Z,975.79
2019-01-27T11:58:12.491Z,975.83
2019-01-27T11:58:52.857Z,975.81
2019-01-27T11:59:34.326Z,975.79
2019-01-27T12:00:14.724Z,975.8
2019-01-27T12:00:55.376Z,975.66
2019-01-27T12:01:35.743Z,975.8
2019-01-27T12:02:16.397Z,975.75
2019-01-27T12:02:57.032Z,975.75
2019-01-27T12:03:37.206Z,975.74
2019-01-27T12:04:18.357Z,975.71
2019-01-27T12:04:58.529Z,975.76
2019-01-27T12:05:39.774Z,975.72
2019-01-27T12:06:20.178Z,975.81
2019-01-27T12:07:08.587Z,975.75
2019-01-27T12:07:49.141Z,975.78
2019-01-27T12:08:29.603Z,975.76
2019-01-27T12:09:10.013Z,975.76
2019-01-27T12:09:50.419Z,975.74
2019-01-27T12:10:30.916Z,975.64
2019-01-27T12:11:12.203Z,975.61
2019-01-27T12:11:53.659Z,975.66
2019-01-27T12:12:34.206Z,975.69
2019-01-27T12:13:14.636Z,975.63
2019-01-27T12:13:55.128Z,975.64
2019-01-27T12:14:35.554Z,975.57
2019-01-27T12:15:16.868Z,975.7
2019-01-27T12:15:57.469Z,975.68
2019-01-27T12:16:37.805Z,975.61
2019-01-27T12:17:18.309Z,975.66
2019-01-27T12:17:58.765Z,975.64
2019-01-27T12:18:39.113Z,975.6
2019-01-27T12:19:19.600Z,975.63
2019-01-27T12:20:00.204Z,975.63
2019-01-27T12:20:41.415Z,975.6
2019-01-27T12:21:21.759Z,975.64
2019-01-27T12:22:02.137Z,975.66
2019-01-27T12:22:42.540Z,975.62
2019-01-27T12:23:22.937Z,975.57
2019-01-27T12:24:05.244Z,975.55
2019-01-27T12:24:45.675Z,975.56
2019-01-27T12:25:26.268Z,975.55
2019-01-27T12:26:06.575Z,975.56
2019-01-27T12:26:46.978Z,975.55
2019-01-27T12:27:28.181Z,975.5
2019-01-27T12:28:08.689Z,975.49
2019-01-27T12:28:51.684Z,975.52
2019-01-27T12:29:32.091Z,975.54
2019-01-27T12:30:12.975Z,975.55
2019-01-27T12:30:53.292Z,975.47
2019-01-27T12:31:34.560Z,975.46
2019-01-27T12:32:15.008Z,975.48
2019-01-27T12:32:55.396Z,975.5
2019-01-27T12:33:35.802Z,975.45
2019-01-27T12:34:16.511Z,975.42
2019-01-27T12:34:56.850Z,975.43
2019-01-27T12:35:37.256Z,975.42
2019-01-27T12:36:18.935Z,975.44
2019-01-27T12:36:58.057Z,975.48
2019-01-27T12:37:38.480Z,975.44
2019-01-27T12:38:19.659Z,975.35
2019-01-27T12:39:01.130Z,975.4
2019-01-27T12:39:41.473Z,975.19
2019-01-27T12:40:22.125Z,975.37
2019-01-27T12:41:02.444Z,975.42
2019-01-27T12:41:42.883Z,975.42
2019-01-27T12:42:23.263Z,975.35
2019-01-27T12:43:03.667Z,975.37